Harrison, Maine
Current Conditions -  °F | °C
As of 2:54 PM on Wednesday 28 Jan 2015 (Local Time) from KIZG Reporting Station
Clear Clear  
Wind Chill: 15°   Ceiling: Unl
Heat Index: 25°   Visibility: 10mi
Dew Point:   Wind: 10mph
Humidity: 49%   Direction: 360°N
Pressure: 29.96"   Gusts: 21mph
Location:  44.11°N, 70.68°W
Report Text: KIZG 281954Z AUTO 36009G18KT 10SM CLR M04/M13 A2996 RMK AO2 SLP154 T10391133
Loading
Personal Weather Stations






























Interactive Weather Map New forecast layout! Learn more

10-Day Weather Forecast

Advertisements
Track Severe Weather on mobile